Time;durP1;ratioP1;P1;durP2;ratioP2;P2;SDS_P1;SDS_P2;PMS_P1;PMS_P2;Temp;Humidity;BMP_temperature;BMP_pressure;BME280_temperature;BME280_humidity;BME280_pressure;Samples;Min_cycle;Max_cycle;Signal;HPM_P1;HPM_P2
2022/02/07 00:07:46;;;;;;;;;;;;;;;;;;;;;
2022/02/07 00:11:04;;;;;;;23.65;11.35;;;;;;;3.29;81.93;94675.64;1324800;107;21189;-85
2022/02/07 00:17:35;;;;;;;9.53;5.45;;;;;;;3.34;81.73;94667.40;1349191;105;21185;-86
2022/02/07 00:23:09;;;;;;;4.72;2.95;;;;;;;3.33;81.21;94660.67;1333499;105;21177;-86
2022/02/07 00:26:18;;;;;;;;;;;;;;;;;;;;;
2022/02/07 00:29:23;;;;;;;;;;;;;;;;;;;;;
2022/02/07 00:35:52;;;;;;;3.45;1.92;;;;;;;3.36;81.32;94651.33;1344218;105;21310;-86
2022/02/07 00:42:20;;;;;;;;;;;;;;;;;;;;;
2022/02/07 00:45:36;;;;;;;;;;;;;;;;;;;;;
2022/02/07 00:49:20;;;;;;;5.05;2.58;;;;;;;3.46;80.77;94655.22;1392089;102;21094;-86
2022/02/07 00:51:53;;;;;;;;;;;;;;;;;;;;;
2022/02/07 00:54:17;;;;;;;5.53;2.62;;;;;;;3.27;80.64;94609.09;1423186;99;21218;-86
2022/02/07 00:56:45;;;;;;;6.67;3.37;;;;;;;3.53;80.46;94650.14;1442828;97;21168;-85
2022/02/07 01:02:36;;;;;;;;;;;;;;;;;;;;;
2022/02/07 01:08:35;;;;;;;;;;;;;;;;;;;;;
2022/02/07 01:16:49;;;;;;;5.72;2.85;;;;;;;3.69;79.63;94641.42;1644297;86;21164;-85
2022/02/07 01:48:05;;;;;;;15.25;6.78;;;;;;;3.76;78.96;94549.83;1642843;86;21112;-85
2022/02/07 01:51:27;;;;;;;;;;;;;;;;;;;;;
2022/02/07 01:55:39;;;;;;;13.70;6.60;;;;;;;3.78;78.73;94546.09;1629772;86;21131;-85
2022/02/07 01:58:00;;;;;;;6.00;3.67;;;;;;;3.77;78.75;94547.08;1647426;85;21502;-85
2022/02/07 02:00:47;;;;;;;3.60;2.15;;;;;;;3.75;78.74;94552.09;1590859;89;21082;-85
2022/02/07 02:03:22;;;;;;;4.97;2.47;;;;;;;3.71;78.73;94546.51;1629640;86;21059;-85
2022/02/07 02:08:48;;;;;;;9.05;5.17;;;;;;;3.67;78.71;94541.44;1545834;89;21292;-85
2022/02/07 02:11:25;;;;;;;6.15;3.62;;;;;;;3.51;78.68;94523.22;1563635;88;21444;-85
2022/02/07 02:14:31;;;;;;;2.77;1.90;;;;;;;3.76;78.72;94579.38;1600229;88;21029;-85
2022/02/07 02:37:18;;;;;;;3.37;2.30;;;;;;;3.73;78.79;94552.74;1640792;86;21011;-85
2022/02/07 02:45:39;;;;;;;4.33;2.72;;;;;;;3.72;78.59;94521.13;1584371;87;21077;-85
2022/02/07 02:48:41;;;;;;;6.92;3.75;;;;;;;3.73;78.39;94519.35;1592794;88;21103;-85
2022/02/07 02:51:29;;;;;;;;;;;;;;;;;;;;;
2022/02/07 02:57:55;;;;;;;4.37;2.52;;;;;;;3.71;78.17;94542.66;1528762;86;21096;-85
2022/02/07 03:07:26;;;;;;;9.68;4.42;;;;;;;3.73;78.21;94565.59;1398037;101;21183;-85
2022/02/07 03:19:53;;;;;;;;;;;;;;;;;;;;;
2022/02/07 03:23:39;;;;;;;;;;;;;;;;;;;;;
2022/02/07 03:26:35;;;;;;;2.12;1.60;;;;;;;3.75;77.82;94493.02;1451407;97;21185;-85
2022/02/07 03:55:44;;;;;;;;;;;;;;;;;;;;;
2022/02/07 04:11:53;;;;;;;;;;;;;;;;;;;;;
2022/02/07 04:14:32;;;;;;;;;;;;;;;;;;;;;
2022/02/07 04:17:50;;;;;;;1.87;1.60;;;;;;;3.74;78.61;94559.02;1300882;109;21277;-86
2022/02/07 04:21:07;;;;;;;;;;;;;;;;;;;;;
2022/02/07 04:28:31;;;;;;;2.25;1.70;;;;;;;3.79;78.44;94561.02;1339583;103;21639;-85
2022/02/07 04:34:21;;;;;;;;;;;;;;;;;;;;;
2022/02/07 04:37:47;;;;;;;1.35;1.25;;;;;;;3.80;78.58;94591.66;1283612;107;21596;-85
2022/02/07 05:03:13;;;;;;;;;;;;;;;;;;;;;
2022/02/07 05:19:08;;;;;;;4.15;2.40;;;;;;;3.23;83.33;94651.95;1310619;106;21197;-85
2022/02/07 05:21:59;;;;;;;8.53;4.10;;;;;;;3.22;83.47;94652.93;1254767;112;21352;-84
2022/02/07 05:27:37;;;;;;;9.70;4.90;;;;;;;3.16;83.91;94666.00;1255876;112;21244;-84
2022/02/07 05:30:12;;;;;;;7.67;3.45;;;;;;;3.18;84.29;94665.81;1295189;104;21155;-85
2022/02/07 05:32:43;;;;;;;4.67;2.87;;;;;;;3.20;84.48;94685.68;1366680;104;21483;-84
2022/02/07 05:35:24;;;;;;;9.98;5.42;;;;;;;3.11;84.55;94663.66;1401446;99;21196;-84
2022/02/07 05:38:01;;;;;;;5.72;3.08;;;;;;;3.21;85.01;94683.42;1426349;99;22217;-84
2022/02/07 05:40:43;;;;;;;124.67;57.53;;;;;;;3.15;85.03;94679.80;1425247;99;21201;-84
2022/02/07 05:45:58;;;;;;;33.28;13.38;;;;;;;3.06;85.25;94677.00;1412994;99;21654;-84
2022/02/07 05:48:31;;;;;;;9.68;5.65;;;;;;;3.06;85.32;94698.02;1416577;98;21173;-84
2022/02/07 05:50:57;;;;;;;26.25;11.00;;;;;;;3.08;85.45;94702.00;1408220;99;21097;-84
2022/02/07 05:54:00;;;;;;;;;;;;;;;;;;;;;
2022/02/07 05:56:46;;;;;;;8.93;5.50;;;;;;;3.11;85.63;94705.52;1469636;94;21092;-84
2022/02/07 05:59:33;;;;;;;53.38;29.27;;;;;;;3.08;85.84;94716.11;1498216;93;21123;-84
2022/02/07 06:01:56;;;;;;;12.18;7.83;;;;;;;3.04;86.28;94719.21;1498503;94;21093;-84
2022/02/07 06:04:34;;;;;;;20.70;7.87;;;;;;;3.01;85.99;94726.30;1491821;94;21175;-84
2022/02/07 06:07:07;;;;;;;6.50;3.72;;;;;;;3.02;86.20;94734.78;1478313;95;21093;-83
2022/02/07 06:09:32;;;;;;;4.90;2.58;;;;;;;3.02;85.95;94793.80;1482086;96;21182;-83
2022/02/07 06:12:04;;;;;;;3.75;2.25;;;;;;;2.79;84.41;94878.98;1476375;97;21075;-85
2022/02/07 06:14:30;;;;;;;2.22;1.77;;;;;;;2.54;83.44;94899.62;1480571;96;21073;-84
2022/02/07 06:17:11;;;;;;;134.90;48.63;;;;;;;2.30;83.30;94913.84;1479236;95;21073;-84
2022/02/07 06:19:39;;;;;;;11.00;4.67;;;;;;;2.08;83.40;94919.19;1480288;96;21145;-84
2022/02/07 06:22:29;;;;;;;26.65;9.10;;;;;;;1.87;83.79;94934.30;1474820;96;21224;-84
2022/02/07 06:25:09;;;;;;;;;;;;;;;;;;;;;
2022/02/07 06:27:31;;;;;;;5.62;2.45;;;;;;;1.65;84.42;94965.23;1478697;95;21165;-84
2022/02/07 06:30:07;;;;;;;65.52;31.23;;;;;;;1.55;84.45;94982.02;1477251;96;21122;-84
2022/02/07 06:32:35;;;;;;;9.30;4.92;;;;;;;1.47;84.56;94981.56;1406070;99;21149;-84
2022/02/07 06:35:03;;;;;;;17.80;5.37;;;;;;;1.40;84.87;94986.18;1425789;98;21109;-84
2022/02/07 06:37:33;;;;;;;4.08;2.87;;;;;;;1.34;84.87;94982.51;1464064;96;21127;-83
2022/02/07 06:40:23;;;;;;;42.88;14.53;;;;;;;1.31;85.30;94990.50;1459565;97;21141;-83
2022/02/07 06:43:03;;;;;;;11.20;5.37;;;;;;;1.30;85.22;94989.36;1476884;96;21492;-83
2022/02/07 06:45:40;;;;;;;90.75;30.40;;;;;;;1.30;85.27;94990.19;1477373;95;21544;-84
2022/02/07 06:48:06;;;;;;;52.00;16.57;;;;;;;1.33;85.36;95002.66;1479965;95;21126;-83
2022/02/07 06:50:32;;;;;;;92.80;28.25;;;;;;;1.32;85.40;94996.42;1476638;97;21561;-84
2022/02/07 06:53:01;;;;;;;14.45;4.95;;;;;;;1.25;86.05;94996.72;1477515;97;21098;-84
2022/02/07 06:55:26;;;;;;;41.28;14.60;;;;;;;1.18;85.90;95014.47;1462435;96;21133;-83
2022/02/07 06:57:54;;;;;;;62.15;19.70;;;;;;;1.19;85.96;95013.52;1461379;96;21668;-83
2022/02/07 07:00:20;;;;;;;5.03;3.42;;;;;;;1.20;85.96;95018.47;1464890;95;21034;-83
2022/02/07 07:02:54;;;;;;;28.90;10.63;;;;;;;1.24;85.78;95018.15;1474230;95;21038;-83
2022/02/07 07:05:35;;;;;;;54.15;21.20;;;;;;;1.27;85.97;95027.58;1475193;97;21141;-83
2022/02/07 07:08:08;;;;;;;128.65;60.15;;;;;;;1.28;85.99;95028.38;1464344;95;21254;-83
2022/02/07 07:10:44;;;;;;;76.53;29.45;;;;;;;1.26;86.06;95040.53;1482092;95;21486;-83
2022/02/07 07:13:24;;;;;;;63.78;24.67;;;;;;;1.20;86.04;95046.61;1482734;94;21586;-83
2022/02/07 07:15:51;;;;;;;46.58;16.62;;;;;;;1.22;86.31;95057.16;1479714;95;21485;-83
2022/02/07 07:18:20;;;;;;;24.00;10.58;;;;;;;1.26;86.12;95066.12;1477194;96;21165;-83
2022/02/07 07:20:48;;;;;;;39.88;19.65;;;;;;;1.29;86.11;95076.05;1475197;95;21022;-83
2022/02/07 07:23:16;;;;;;;31.90;13.53;;;;;;;1.31;86.12;95080.08;1475046;95;21080;-83
2022/02/07 07:25:45;;;;;;;12.20;6.65;;;;;;;1.30;86.42;95087.43;1481221;95;21553;-83
2022/02/07 07:28:14;;;;;;;6.40;4.83;;;;;;;1.23;86.16;95089.47;1486588;95;21092;-83
2022/02/07 07:30:50;;;;;;;27.55;12.63;;;;;;;1.20;86.23;95093.95;1488262;95;21622;-83
2022/02/07 07:33:27;;;;;;;18.12;12.68;;;;;;;1.20;86.60;95095.23;1485231;95;21087;-83
2022/02/07 07:36:03;;;;;;;41.37;15.48;;;;;;;1.21;86.51;95098.59;1492070;95;21484;-83
2022/02/07 07:38:37;;;;;;;62.70;24.60;;;;;;;1.23;86.53;95106.91;1492688;95;21205;-83
2022/02/07 07:41:11;;;;;;;42.78;16.05;;;;;;;1.27;86.35;95119.70;1473010;95;21466;-84
2022/02/07 07:43:39;;;;;;;129.63;44.38;;;;;;;1.15;86.49;95091.54;1480541;95;21079;-84
2022/02/07 07:46:20;;;;;;;19.32;9.53;;;;;;;1.33;86.03;95123.42;1482785;95;21132;-82
2022/02/07 07:48:57;;;;;;;14.07;7.10;;;;;;;1.34;86.09;95133.50;1489468;95;21186;-83
2022/02/07 08:02:57;;;;;;;13.10;7.20;;;;;;;1.48;85.30;95141.86;1481099;94;21077;-83
2022/02/07 08:08:44;;;;;;;69.97;29.75;;;;;;;1.46;85.23;95145.51;1409111;100;21142;-83
2022/02/07 08:11:10;;;;;;;16.15;9.20;;;;;;;1.50;85.06;95155.30;1396741;101;21103;-84
2022/02/07 08:14:22;;;;;;;17.40;9.15;;;;;;;1.58;85.30;95155.79;1410654;100;21040;-83
2022/02/07 08:17:42;;;;;;;;;;;;;;;;;;;;;
2022/02/07 08:20:17;;;;;;;15.08;7.90;;;;;;;1.63;85.12;95164.30;1422746;99;21165;-84
2022/02/07 08:22:45;;;;;;;16.48;10.35;;;;;;;1.57;85.10;95164.43;1452481;95;21418;-84
2022/02/07 08:25:13;;;;;;;9.70;6.78;;;;;;;1.56;85.08;95176.11;1460482;96;21605;-82
2022/02/07 08:27:50;;;;;;;15.75;8.58;;;;;;;1.52;85.23;95169.23;1463732;96;21146;-84
2022/02/07 08:30:52;;;;;;;16.37;8.05;;;;;;;1.46;85.26;95183.45;1414900;101;21561;-84
2022/02/07 08:33:30;;;;;;;8.25;5.35;;;;;;;1.38;85.20;95197.97;1415309;100;21155;-83
2022/02/07 08:37:06;;;;;;;;;;;;;;;;;;;;;
2022/02/07 08:39:49;;;;;;;8.25;4.80;;;;;;;1.29;85.31;95199.67;1394156;99;21255;-83
2022/02/07 08:43:08;;;;;;;6.80;4.75;;;;;;;1.05;85.60;95187.58;1442291;98;21225;-84
2022/02/07 08:46:20;;;;;;;;;;;;;;;;;;;;;
2022/02/07 08:48:45;;;;;;;8.40;5.35;;;;;;;1.44;85.16;95252.37;1446423;95;21123;-84
2022/02/07 08:51:20;;;;;;;18.55;10.15;;;;;;;1.39;84.62;95229.80;1477985;95;21120;-84
2022/02/07 08:53:51;;;;;;;41.37;18.30;;;;;;;1.45;84.38;95233.50;1482400;95;21567;-83
2022/02/07 08:56:20;;;;;;;10.20;6.30;;;;;;;1.53;84.64;95236.59;1460628;96;21129;-84
2022/02/07 08:58:47;;;;;;;9.48;5.95;;;;;;;1.55;83.29;95243.16;1455146;96;21513;-84
2022/02/07 09:01:28;;;;;;;11.50;5.65;;;;;;;1.59;83.60;95251.32;1484426;95;21074;-84
2022/02/07 09:09:19;;;;;;;;;;;;;;;;;;;;;
2022/02/07 09:11:44;;;;;;;6.22;3.70;;;;;;;1.70;81.87;95289.47;1500314;93;21413;-83
2022/02/07 09:14:27;;;;;;;7.53;2.90;;;;;;;1.68;80.77;95293.95;1501867;93;21066;-84
2022/02/07 09:16:59;;;;;;;12.28;6.62;;;;;;;1.68;80.36;95316.98;1494277;93;21214;-83
2022/02/07 09:19:34;;;;;;;8.13;4.22;;;;;;;1.65;81.46;95306.58;1503934;93;22012;-83
2022/02/07 09:22:55;;;;;;;;;;;;;;;;;;;;;
2022/02/07 09:25:29;;;;;;;9.53;5.42;;;;;;;1.72;81.88;95296.03;1435165;97;21139;-84
2022/02/07 09:27:58;;;;;;;13.62;7.85;;;;;;;1.76;81.79;95324.22;1403170;99;21207;-83
2022/02/07 09:30:46;;;;;;;9.95;6.85;;;;;;;1.75;81.68;95314.93;1422451;99;21141;-83
2022/02/07 09:33:35;;;;;;;10.63;6.03;;;;;;;1.70;82.00;95311.23;1460725;90;21150;-84
2022/02/07 09:36:24;;;;;;;10.65;6.58;;;;;;;1.68;82.15;95324.67;1585723;88;21384;-84
2022/02/07 09:38:56;;;;;;;15.15;10.25;;;;;;;1.63;82.27;95341.78;1536930;91;21508;-84
2022/02/07 09:41:33;;;;;;;18.07;11.55;;;;;;;1.64;82.66;95345.14;1593885;87;21032;-84
2022/02/07 09:44:44;;;;;;;13.20;8.23;;;;;;;1.66;82.50;95367.08;1593848;87;21066;-84
2022/02/07 09:46:52;;;;;;;22.45;12.68;;;;;;;1.69;82.66;95366.77;1557607;88;21090;-84
2022/02/07 09:49:22;;;;;;;15.53;8.48;;;;;;;1.67;82.71;95377.64;1586727;88;21426;-83
2022/02/07 09:51:49;;;;;;;11.75;6.42;;;;;;;1.65;82.59;95374.91;1593146;88;22106;-84
2022/02/07 09:54:18;;;;;;;14.80;8.63;;;;;;;1.65;82.41;95394.12;1600838;88;20979;-84
2022/02/07 09:56:46;;;;;;;7.60;5.25;;;;;;;1.72;82.61;95387.42;1605330;87;21083;-84
2022/02/07 09:59:14;;;;;;;8.73;5.72;;;;;;;1.73;82.60;95384.71;1596333;88;21042;-84
2022/02/07 10:01:46;;;;;;;18.37;10.40;;;;;;;1.73;82.44;95385.99;1603158;87;21744;-84
2022/02/07 10:04:25;;;;;;;14.83;8.63;;;;;;;1.77;82.82;95386.01;1604087;87;21128;-84
2022/02/07 10:20:02;;;;;;;6.78;4.33;;;;;;;1.60;83.42;95434.23;1553671;90;22159;-84
2022/02/07 10:36:25;;;;;;;14.58;7.37;;;;;;;1.08;84.67;95440.55;1552215;90;21112;-83
2022/02/07 10:44:38;;;;;;;10.28;6.28;;;;;;;1.07;84.82;95459.41;1603880;87;21059;-84
2022/02/07 10:47:05;;;;;;;24.72;12.37;;;;;;;1.10;84.85;95460.39;1602883;87;22356;-83
2022/02/07 10:49:26;;;;;;;13.98;8.15;;;;;;;1.15;84.93;95462.53;1602688;87;21001;-84
2022/02/07 10:51:58;;;;;;;54.00;25.95;;;;;;;1.17;84.42;95468.30;1600194;87;21465;-84
2022/02/07 10:54:24;;;;;;;43.73;20.27;;;;;;;1.24;84.68;95471.07;1597110;87;21048;-83
2022/02/07 10:56:51;;;;;;;14.05;7.58;;;;;;;1.26;84.58;95468.69;1600334;87;21056;-84
2022/02/07 10:59:20;;;;;;;10.88;6.70;;;;;;;1.25;84.32;95476.52;1518974;91;21170;-84
2022/02/07 11:04:45;;;;;;;21.05;9.58;;;;;;;1.33;84.63;95481.25;1602762;87;21123;-84
2022/02/07 11:07:10;;;;;;;9.65;6.47;;;;;;;1.41;84.56;95486.89;1592947;88;21136;-85
2022/02/07 11:09:53;;;;;;;12.25;8.93;;;;;;;1.41;83.69;95489.45;1598404;88;21044;-84
2022/02/07 11:14:43;;;;;;;14.40;9.65;;;;;;;1.43;84.46;95496.51;1601805;88;21126;-84
2022/02/07 11:25:13;;;;;;;7.90;5.67;;;;;;;1.29;84.49;95526.45;1593682;88;21063;-84
2022/02/07 11:27:50;;;;;;;14.47;7.70;;;;;;;1.20;85.17;95544.77;1575100;88;20995;-83
2022/02/07 11:30:13;;;;;;;8.23;5.08;;;;;;;1.16;85.04;95546.82;1602827;87;21033;-83
2022/02/07 11:32:47;;;;;;;10.78;6.22;;;;;;;1.18;85.46;95539.00;1546965;91;21117;-83
2022/02/07 11:35:16;;;;;;;28.55;12.93;;;;;;;1.21;84.96;95561.73;1590786;88;21025;-83
2022/02/07 11:37:43;;;;;;;71.70;25.50;;;;;;;1.22;84.62;95556.14;1592084;88;21047;-83
2022/02/07 11:40:32;;;;;;;10.95;6.72;;;;;;;1.29;84.84;95556.69;1643189;83;20977;-84
2022/02/07 11:43:20;;;;;;;38.28;15.43;;;;;;;1.36;84.32;95563.33;1667000;83;21091;-83
2022/02/07 11:46:11;;;;;;;19.27;10.78;;;;;;;1.41;84.33;95553.45;1662837;83;21049;-84
2022/02/07 11:48:46;;;;;;;8.88;5.92;;;;;;;1.50;84.28;95558.98;1624533;86;21019;-83
2022/02/07 11:51:19;;;;;;;69.37;23.27;;;;;;;1.58;83.49;95570.57;1680941;83;21038;-83
2022/02/07 11:53:50;;;;;;;13.48;8.20;;;;;;;1.64;83.40;95582.81;1690919;83;20990;-83
2022/02/07 11:56:35;;;;;;;11.40;7.35;;;;;;;1.72;83.28;95590.55;1672095;83;20961;-83
2022/02/07 12:01:59;;;;;;;8.75;6.33;;;;;;;1.76;82.96;95591.05;1682089;83;21016;-83
2022/02/07 12:04:42;;;;;;;15.25;9.23;;;;;;;1.77;82.69;95593.47;1688966;83;21104;-83
2022/02/07 12:07:21;;;;;;;17.12;8.13;;;;;;;1.77;82.49;95591.38;1629373;87;21430;-84
2022/02/07 12:10:14;;;;;;;7.35;4.05;;;;;;;1.76;82.18;95584.18;1649645;85;21020;-83
2022/02/07 12:12:46;;;;;;;5.15;4.12;;;;;;;1.68;81.22;95589.72;1625128;87;21011;-83
2022/02/07 12:15:31;;;;;;;6.53;5.85;;;;;;;1.58;81.56;95593.62;1707393;83;21392;-83
2022/02/07 12:17:59;;;;;;;13.10;8.75;;;;;;;1.49;82.15;95596.59;1685488;83;21741;-83
2022/02/07 12:20:32;;;;;;;23.18;10.38;;;;;;;1.54;82.70;95600.46;1704455;82;21079;-83
2022/02/07 12:23:17;;;;;;;28.15;11.33;;;;;;;1.62;82.99;95606.92;1678155;84;21044;-83
2022/02/07 12:25:56;;;;;;;13.65;7.10;;;;;;;1.65;82.98;95605.38;1698581;83;21025;-83
2022/02/07 12:33:31;;;;;;;7.78;5.87;;;;;;;1.58;82.63;95619.70;1683073;83;21348;-83
2022/02/07 12:35:57;;;;;;;7.40;5.28;;;;;;;1.57;82.16;95630.41;1696932;83;21079;-83
2022/02/07 12:38:30;;;;;;;9.88;5.90;;;;;;;1.60;82.46;95636.52;1628125;86;21024;-83
2022/02/07 12:40:56;;;;;;;5.92;4.70;;;;;;;1.64;82.62;95631.94;1697778;83;21048;-83
2022/02/07 12:43:22;;;;;;;6.95;4.15;;;;;;;1.67;81.89;95634.20;1701080;83;21053;-84
2022/02/07 12:45:48;;;;;;;5.87;4.92;;;;;;;1.63;80.92;95643.14;1642380;86;20988;-83
2022/02/07 12:48:16;;;;;;;34.70;11.97;;;;;;;1.65;81.03;95650.20;1704921;83;20993;-83
2022/02/07 12:50:49;;;;;;;6.50;4.40;;;;;;;1.66;81.48;95666.70;1698499;83;21043;-84
2022/02/07 12:53:21;;;;;;;13.62;6.28;;;;;;;1.68;80.50;95665.27;1683547;83;21047;-83
2022/02/07 12:55:57;;;;;;;11.80;6.40;;;;;;;1.77;80.84;95660.54;1700240;83;21128;-84
2022/02/07 12:58:24;;;;;;;6.00;4.10;;;;;;;1.89;79.82;95656.83;1697734;83;21036;-83
2022/02/07 13:00:50;;;;;;;5.28;3.70;;;;;;;1.95;79.81;95666.51;1697472;83;21097;-83
2022/02/07 13:03:16;;;;;;;10.88;6.40;;;;;;;1.98;79.45;95665.41;1700456;83;21089;-83
2022/02/07 13:05:47;;;;;;;8.23;5.03;;;;;;;2.01;79.99;95670.23;1697767;83;21486;-83
2022/02/07 13:08:15;;;;;;;5.83;4.25;;;;;;;2.05;79.88;95675.39;1690860;83;20960;-83
2022/02/07 13:10:41;;;;;;;6.58;4.60;;;;;;;2.03;79.46;95680.66;1690662;83;21014;-83
2022/02/07 13:13:29;;;;;;;10.00;5.47;;;;;;;1.99;79.90;95684.95;1684359;83;21075;-84
2022/02/07 13:15:44;;;;;;;7.37;5.78;;;;;;;1.93;79.91;95695.28;1690337;83;20995;-83
2022/02/07 13:18:15;;;;;;;8.25;5.65;;;;;;;1.89;80.44;95697.01;1668736;83;21564;-83
2022/02/07 13:20:40;;;;;;;9.85;7.05;;;;;;;1.82;80.50;95698.08;1689939;83;21004;-83
2022/02/07 13:23:11;;;;;;;12.50;8.05;;;;;;;1.76;80.81;95714.80;1688600;83;21106;-83
2022/02/07 13:25:53;;;;;;;19.25;10.40;;;;;;;1.72;80.95;95721.17;1688806;83;21505;-84
2022/02/07 13:28:24;;;;;;;21.77;11.50;;;;;;;1.72;80.93;95717.80;1667963;83;20992;-83
2022/02/07 13:30:56;;;;;;;19.52;10.00;;;;;;;1.75;81.25;95713.67;1701405;83;21032;-84
2022/02/07 13:33:22;;;;;;;32.20;14.53;;;;;;;1.73;81.15;95716.38;1694898;83;21019;-83
2022/02/07 13:35:51;;;;;;;30.92;13.28;;;;;;;1.71;81.22;95724.69;1621623;86;21348;-84
2022/02/07 13:38:19;;;;;;;10.25;6.92;;;;;;;1.67;81.21;95728.48;1697071;83;21028;-84
2022/02/07 13:40:48;;;;;;;14.68;8.25;;;;;;;1.64;81.34;95731.81;1683537;83;21450;-83
2022/02/07 13:43:24;;;;;;;9.63;6.70;;;;;;;1.62;81.59;95737.52;1694742;83;21040;-83
2022/02/07 13:45:54;;;;;;;24.50;11.65;;;;;;;1.59;81.28;95736.53;1677705;83;21438;-83
2022/02/07 13:48:25;;;;;;;15.20;8.63;;;;;;;1.61;81.46;95733.35;1680195;83;21394;-84
2022/02/07 13:50:54;;;;;;;15.68;8.60;;;;;;;1.59;81.00;95740.37;1619175;86;21030;-83
2022/02/07 13:53:21;;;;;;;15.38;7.90;;;;;;;1.56;81.34;95746.59;1673281;83;21005;-83
2022/02/07 13:55:54;;;;;;;7.75;4.33;;;;;;;1.53;81.33;95766.55;1686710;83;21077;-83
2022/02/07 13:58:34;;;;;;;8.40;4.78;;;;;;;1.44;82.04;95775.87;1663253;83;21950;-82
2022/02/07 14:01:13;;;;;;;7.25;4.90;;;;;;;1.33;82.45;95789.66;1693051;83;20999;-83
2022/02/07 14:03:46;;;;;;;7.92;6.17;;;;;;;1.27;82.66;95783.00;1679881;83;21467;-84
2022/02/07 14:06:16;;;;;;;12.98;8.28;;;;;;;1.21;82.85;95788.20;1683285;83;21036;-83
2022/02/07 14:08:50;;;;;;;48.55;25.92;;;;;;;1.24;83.09;95794.80;1674361;83;21000;-83
2022/02/07 14:11:25;;;;;;;14.38;8.70;;;;;;;1.29;83.46;95801.10;1682101;83;21348;-83
2022/02/07 14:13:53;;;;;;;14.23;8.70;;;;;;;1.37;83.26;95803.80;1674170;83;21037;-83
2022/02/07 14:16:22;;;;;;;11.28;7.20;;;;;;;1.43;83.24;95806.26;1680283;83;20938;-83
2022/02/07 14:18:48;;;;;;;22.62;13.72;;;;;;;1.45;83.08;95806.92;1672405;84;22320;-83
2022/02/07 14:21:20;;;;;;;16.93;11.60;;;;;;;1.47;83.23;95804.58;1676754;84;20945;-82
2022/02/07 14:23:48;;;;;;;;;;;;;;;1.52;83.48;95795.67;1661086;84;21403;-82
2022/02/07 14:26:18;;;;;;;32.33;19.12;;;;;;;1.55;83.54;95799.22;1686079;83;20177;-83
2022/02/07 14:28:47;;;;;;;80.77;50.20;;;;;;;1.47;83.33;95810.18;1684064;83;21426;-82
2022/02/07 14:31:14;;;;;;;30.23;18.50;;;;;;;1.46;83.55;95813.21;1681150;83;21339;-82
2022/02/07 14:33:41;;;;;;;15.85;9.93;;;;;;;1.43;83.59;95841.63;1610332;86;21022;-83
2022/02/07 14:36:07;;;;;;;18.98;10.82;;;;;;;1.38;83.70;95877.55;1627099;86;21435;-82
2022/02/07 14:38:33;;;;;;;12.88;8.13;;;;;;;1.27;84.04;95873.86;1643706;85;20980;-82
2022/02/07 14:41:02;;;;;;;10.90;7.25;;;;;;;1.16;84.12;95863.31;1655047;85;21017;-82
2022/02/07 14:43:31;;;;;;;10.18;7.40;;;;;;;1.09;84.26;95882.22;1648930;85;21115;-82
2022/02/07 14:48:33;;;;;;;12.05;7.60;;;;;;;1.06;84.61;95902.97;1650022;85;21103;-82
2022/02/07 14:51:06;;;;;;;10.18;6.97;;;;;;;1.09;84.77;95914.20;1646997;85;21022;-81
2022/02/07 14:53:30;;;;;;;8.05;6.00;;;;;;;1.09;84.98;95914.67;1645111;85;21404;-82
2022/02/07 14:55:56;;;;;;;16.70;10.93;;;;;;;1.09;84.80;95921.88;1647225;85;20996;-81
2022/02/07 14:58:22;;;;;;;17.23;11.20;;;;;;;1.09;85.55;95914.67;1651841;85;21029;-81
2022/02/07 15:00:52;;;;;;;46.90;21.62;;;;;;;1.06;85.13;95927.27;1642789;85;21476;-81
2022/02/07 15:03:19;;;;;;;9.18;6.95;;;;;;;1.03;85.36;95929.30;1646818;85;21002;-82
2022/02/07 15:05:44;;;;;;;25.65;14.70;;;;;;;1.02;85.27;95941.75;1660569;85;21040;-82
2022/02/07 15:08:11;;;;;;;14.68;9.83;;;;;;;1.02;85.20;95937.92;1658216;85;21083;-82
2022/02/07 15:10:37;;;;;;;10.60;6.80;;;;;;;1.00;85.27;95932.94;1652953;85;21010;-81
2022/02/07 15:13:05;;;;;;;14.90;9.18;;;;;;;0.99;85.06;95940.75;1658834;84;21043;-81
2022/02/07 15:15:30;;;;;;;14.73;10.00;;;;;;;1.01;85.35;95946.06;1689985;83;21032;-81
2022/02/07 15:17:58;;;;;;;8.15;5.67;;;;;;;1.01;85.29;95939.67;1689070;83;20975;-81
2022/02/07 15:20:23;;;;;;;10.15;6.05;;;;;;;1.01;84.85;95931.19;1694436;83;21497;-81
2022/02/07 15:22:50;;;;;;;11.20;7.28;;;;;;;1.01;84.40;95931.19;1701350;83;21205;-82
2022/02/07 15:25:19;;;;;;;11.43;8.03;;;;;;;1.06;84.63;95950.30;1697967;83;21075;-82
2022/02/07 15:27:48;;;;;;;11.70;7.78;;;;;;;1.08;84.66;95954.00;1641134;86;21047;-82
2022/02/07 15:30:15;;;;;;;11.25;9.43;;;;;;;1.14;84.88;95956.85;1685581;83;21057;-82
2022/02/07 15:32:45;;;;;;;11.78;9.38;;;;;;;1.17;84.97;95957.05;1692973;83;21023;-82
2022/02/07 15:35:14;;;;;;;12.40;7.80;;;;;;;1.18;84.97;95963.31;1679217;83;21346;-82
2022/02/07 15:37:40;;;;;;;12.13;8.93;;;;;;;1.20;84.96;95960.14;1687753;83;21048;-82
2022/02/07 15:40:09;;;;;;;14.20;10.40;;;;;;;1.19;84.95;95967.48;1689069;83;21477;-82
2022/02/07 15:42:35;;;;;;;11.48;7.70;;;;;;;1.22;84.85;95968.16;1693684;83;21073;-82
2022/02/07 15:45:01;;;;;;;16.93;11.08;;;;;;;1.23;84.16;95971.86;1688491;83;21094;-82
2022/02/07 15:47:33;;;;;;;16.15;8.73;;;;;;;1.25;84.27;95964.05;1689094;83;21480;-82
2022/02/07 15:49:59;;;;;;;14.40;7.85;;;;;;;1.22;84.46;95975.84;1691470;83;21105;-82
2022/02/07 15:52:25;;;;;;;16.40;8.43;;;;;;;1.17;84.17;95984.73;1690223;83;21462;-82
2022/02/07 15:54:53;;;;;;;14.23;7.42;;;;;;;1.14;83.81;95988.03;1684263;83;21470;-83
2022/02/07 15:57:18;;;;;;;14.00;6.53;;;;;;;1.12;83.82;95991.98;1686355;82;21032;-83
2022/02/07 15:59:44;;;;;;;12.43;6.62;;;;;;;1.13;83.68;95996.15;1688932;83;21382;-82
2022/02/07 16:02:10;;;;;;;12.93;6.55;;;;;;;1.11;83.24;96004.44;1691994;83;20951;-82
2022/02/07 16:04:37;;;;;;;11.75;7.70;;;;;;;1.08;83.91;96009.83;1692424;83;21073;-82
2022/02/07 16:07:04;;;;;;;17.98;10.25;;;;;;;1.04;84.36;96020.46;1649349;85;21058;-82
2022/02/07 16:09:30;;;;;;;15.32;10.58;;;;;;;0.99;84.71;96022.61;1696356;82;21889;-82
2022/02/07 16:11:58;;;;;;;14.93;9.68;;;;;;;1.00;84.77;96040.86;1699208;82;21017;-82
2022/02/07 16:14:25;;;;;;;31.23;19.98;;;;;;;0.98;84.95;96033.32;1696782;82;21408;-82
2022/02/07 16:16:52;;;;;;;11.75;7.90;;;;;;;0.97;85.47;96051.33;1694871;82;21085;-82
2022/02/07 16:19:18;;;;;;;9.38;6.75;;;;;;;0.90;85.82;96057.45;1691810;83;21440;-82
2022/02/07 16:21:44;;;;;;;14.65;8.33;;;;;;;0.85;86.46;96064.71;1696005;83;21044;-82
2022/02/07 16:24:10;;;;;;;12.88;7.50;;;;;;;0.80;86.26;96066.36;1689051;83;21128;-82
2022/02/07 16:26:36;;;;;;;13.78;9.25;;;;;;;0.79;86.67;96058.34;1696805;82;20972;-82
2022/02/07 16:29:02;;;;;;;13.55;8.35;;;;;;;0.79;86.34;96062.18;1703040;83;20978;-82
2022/02/07 16:31:27;;;;;;;12.43;7.53;;;;;;;0.81;86.19;96068.44;1695238;83;20985;-82
2022/02/07 16:33:53;;;;;;;15.28;7.70;;;;;;;0.84;86.21;96065.65;1704311;83;20993;-82
2022/02/07 16:36:19;;;;;;;15.40;9.13;;;;;;;0.83;86.55;96075.08;1700545;83;21069;-82
2022/02/07 16:38:45;;;;;;;17.50;8.68;;;;;;;0.83;86.39;96078.10;1695391;82;20996;-82
2022/02/07 16:41:12;;;;;;;17.90;8.93;;;;;;;0.83;86.55;96081.94;1699444;83;21042;-82
2022/02/07 16:43:41;;;;;;;18.27;9.10;;;;;;;0.84;86.56;96093.31;1690587;83;20996;-83
2022/02/07 16:46:30;;;;;;;15.83;9.33;;;;;;;0.92;86.56;96103.36;1696744;83;21116;-82
2022/02/07 16:48:56;;;;;;;17.65;10.68;;;;;;;0.92;86.30;96101.61;1645078;86;21101;-82
2022/02/07 16:51:22;;;;;;;17.87;10.28;;;;;;;0.96;86.32;96112.39;1699938;83;22020;-82
2022/02/07 16:53:47;;;;;;;18.85;11.70;;;;;;;0.92;86.19;96112.31;1701243;83;21043;-82
2022/02/07 16:56:13;;;;;;;20.75;12.13;;;;;;;0.93;86.26;96108.81;1696847;83;21003;-82
2022/02/07 16:58:39;;;;;;;20.85;11.78;;;;;;;0.96;86.44;96120.06;1701839;82;21378;-83
2022/02/07 17:01:05;;;;;;;25.97;14.20;;;;;;;1.00;86.62;96122.73;1689876;83;21136;-82
2022/02/07 17:03:31;;;;;;;26.87;13.20;;;;;;;1.02;86.38;96119.57;1686983;83;21059;-82
2022/02/07 17:05:56;;;;;;;28.30;16.37;;;;;;;1.04;86.17;96126.17;1697890;83;21494;-82
2022/02/07 17:08:22;;;;;;;22.50;15.13;;;;;;;1.10;86.17;96135.07;1698410;83;20998;-83
2022/02/07 17:10:49;;;;;;;27.20;15.48;;;;;;;1.12;86.11;96135.28;1687909;83;21352;-83
2022/02/07 17:13:14;;;;;;;23.42;15.55;;;;;;;1.15;86.23;96135.52;1688556;83;21031;-83
2022/02/07 17:15:40;;;;;;;19.95;13.48;;;;;;;1.19;86.38;96141.98;1689867;83;20971;-83
2022/02/07 17:18:06;;;;;;;30.27;18.98;;;;;;;1.18;86.05;96149.33;1676860;84;20969;-83
2022/02/07 17:20:32;;;;;;;29.92;21.50;;;;;;;1.20;86.13;96147.44;1670393;83;21410;-82